sensor_id;sensor_type;location;lat;lon;timestamp;pressure;altitude;pressure_sealevel;temperature;humidity
77165;BME280;66140;50.280;18.660;2023-03-20T05:02:40;99036.63;;;6.15;68.67
77165;BME280;66140;50.280;18.660;2023-03-20T05:05:06;99043.41;;;6.21;69.16
77165;BME280;66140;50.280;18.660;2023-03-20T05:07:32;99033.63;;;6.23;68.60
77165;BME280;66140;50.280;18.660;2023-03-20T05:09:57;99040.50;;;6.27;68.30
77165;BME280;66140;50.280;18.660;2023-03-20T05:12:23;99032.50;;;6.28;68.41
77165;BME280;66140;50.280;18.660;2023-03-20T05:14:49;99036.59;;;6.34;68.48
77165;BME280;66140;50.280;18.660;2023-03-20T05:17:15;99040.75;;;6.39;68.69
77165;BME280;66140;50.280;18.660;2023-03-20T05:19:42;99044.03;;;6.44;68.39
77165;BME280;66140;50.280;18.660;2023-03-20T05:22:08;99042.38;;;6.42;68.83
77165;BME280;66140;50.280;18.660;2023-03-20T05:24:34;99038.88;;;6.41;68.32
77165;BME280;66140;50.280;18.660;2023-03-20T05:27:00;99038.03;;;6.41;68.45
77165;BME280;66140;50.280;18.660;2023-03-20T05:29:25;99053.53;;;6.47;68.61
77165;BME280;66140;50.280;18.660;2023-03-20T05:31:51;99044.88;;;6.45;68.40
77165;BME280;66140;50.280;18.660;2023-03-20T05:34:16;99047.97;;;6.53;68.15
77165;BME280;66140;50.280;18.660;2023-03-20T05:36:41;99045.44;;;6.52;69.17
77165;BME280;66140;50.280;18.660;2023-03-20T05:39:07;99042.81;;;6.52;68.99
77165;BME280;66140;50.280;18.660;2023-03-20T05:41:32;99047.16;;;6.53;68.91
77165;BME280;66140;50.280;18.660;2023-03-20T05:43:58;99047.97;;;6.53;69.21
77165;BME280;66140;50.280;18.660;2023-03-20T05:46:23;99043.72;;;6.51;68.53
77165;BME280;66140;50.280;18.660;2023-03-20T05:48:50;99046.28;;;6.52;69.89
77165;BME280;66140;50.280;18.660;2023-03-20T05:51:15;99060.03;;;6.59;69.46
77165;BME280;66140;50.280;18.660;2023-03-20T05:53:41;99044.22;;;6.59;69.23
77165;BME280;66140;50.280;18.660;2023-03-20T05:56:07;99044.13;;;6.60;69.80
77165;BME280;66140;50.280;18.660;2023-03-20T05:58:32;99053.50;;;6.66;69.59
77165;BME280;66140;50.280;18.660;2023-03-20T06:00:59;99054.00;;;6.74;69.02
77165;BME280;66140;50.280;18.660;2023-03-20T06:03:24;99058.03;;;6.81;69.63
77165;BME280;66140;50.280;18.660;2023-03-20T06:05:50;99065.88;;;6.82;70.09
77165;BME280;66140;50.280;18.660;2023-03-20T06:08:15;99053.38;;;6.86;69.77
77165;BME280;66140;50.280;18.660;2023-03-20T06:10:41;99065.22;;;6.96;69.72
77165;BME280;66140;50.280;18.660;2023-03-20T06:13:06;99070.25;;;7.01;70.35
77165;BME280;66140;50.280;18.660;2023-03-20T06:15:33;99075.06;;;7.10;69.66
77165;BME280;66140;50.280;18.660;2023-03-20T06:17:59;99070.66;;;7.10;69.58
77165;BME280;66140;50.280;18.660;2023-03-20T06:20:25;99072.75;;;7.21;69.35
77165;BME280;66140;50.280;18.660;2023-03-20T06:22:50;99079.72;;;7.22;69.68
77165;BME280;66140;50.280;18.660;2023-03-20T06:25:17;99087.41;;;7.27;70.20
77165;BME280;66140;50.280;18.660;2023-03-20T06:27:45;99079.56;;;7.25;69.71
77165;BME280;66140;50.280;18.660;2023-03-20T06:30:11;99082.06;;;7.28;69.27
77165;BME280;66140;50.280;18.660;2023-03-20T06:32:36;99077.53;;;7.30;70.01
77165;BME280;66140;50.280;18.660;2023-03-20T06:35:02;99085.13;;;7.36;69.67
77165;BME280;66140;50.280;18.660;2023-03-20T06:37:30;99097.34;;;7.39;69.71
77165;BME280;66140;50.280;18.660;2023-03-20T06:39:56;99096.34;;;7.41;69.97
77165;BME280;66140;50.280;18.660;2023-03-20T06:42:21;99092.78;;;7.42;70.35
77165;BME280;66140;50.280;18.660;2023-03-20T06:44:47;99101.06;;;7.52;71.04
77165;BME280;66140;50.280;18.660;2023-03-20T06:47:12;99094.84;;;7.53;71.21
77165;BME280;66140;50.280;18.660;2023-03-20T06:49:37;99099.81;;;7.59;71.83
77165;BME280;66140;50.280;18.660;2023-03-20T06:52:03;99096.06;;;7.63;71.55
77165;BME280;66140;50.280;18.660;2023-03-20T06:54:29;99104.06;;;7.79;71.50
77165;BME280;66140;50.280;18.660;2023-03-20T06:56:54;99107.75;;;7.92;71.68
77165;BME280;66140;50.280;18.660;2023-03-20T06:59:20;99109.28;;;7.96;71.35
77165;BME280;66140;50.280;18.660;2023-03-20T07:01:45;99112.53;;;8.01;71.39
77165;BME280;66140;50.280;18.660;2023-03-20T07:04:11;99115.81;;;8.06;71.39
77165;BME280;66140;50.280;18.660;2023-03-20T07:06:36;99104.22;;;8.09;71.66
77165;BME280;66140;50.280;18.660;2023-03-20T07:09:02;99109.16;;;8.15;71.83
77165;BME280;66140;50.280;18.660;2023-03-20T07:11:29;99111.41;;;8.22;72.34
77165;BME280;66140;50.280;18.660;2023-03-20T07:13:55;99113.63;;;8.30;72.32
77165;BME280;66140;50.280;18.660;2023-03-20T07:16:21;99114.34;;;8.33;71.99
77165;BME280;66140;50.280;18.660;2023-03-20T07:18:46;99121.00;;;8.40;72.60
77165;BME280;66140;50.280;18.660;2023-03-20T07:21:17;99115.72;;;8.40;72.96
77165;BME280;66140;50.280;18.660;2023-03-20T07:23:43;99112.31;;;8.38;73.44
77165;BME280;66140;50.280;18.660;2023-03-20T07:26:09;99122.63;;;8.43;73.32
77165;BME280;66140;50.280;18.660;2023-03-20T07:28:43;99120.66;;;8.47;72.59
77165;BME280;66140;50.280;18.660;2023-03-20T07:31:21;99123.75;;;8.55;73.28
77165;BME280;66140;50.280;18.660;2023-03-20T07:33:47;99128.34;;;8.67;73.31
77165;BME280;66140;50.280;18.660;2023-03-20T07:36:12;99122.38;;;8.79;72.71
77165;BME280;66140;50.280;18.660;2023-03-20T07:38:38;99123.41;;;8.92;72.86
77165;BME280;66140;50.280;18.660;2023-03-20T07:41:03;99123.63;;;9.03;72.51
77165;BME280;66140;50.280;18.660;2023-03-20T07:43:29;99122.78;;;9.03;72.54
77165;BME280;66140;50.280;18.660;2023-03-20T07:45:54;99124.75;;;8.99;73.00
77165;BME280;66140;50.280;18.660;2023-03-20T07:48:20;99129.13;;;9.00;73.88
77165;BME280;66140;50.280;18.660;2023-03-20T07:50:45;99120.25;;;9.01;75.09
77165;BME280;66140;50.280;18.660;2023-03-20T07:53:10;99121.97;;;9.16;74.73
77165;BME280;66140;50.280;18.660;2023-03-20T07:55:36;99123.47;;;9.36;74.16
77165;BME280;66140;50.280;18.660;2023-03-20T07:58:03;99128.81;;;9.50;74.85
77165;BME280;66140;50.280;18.660;2023-03-20T08:00:29;99116.81;;;9.45;75.56
77165;BME280;66140;50.280;18.660;2023-03-20T08:02:55;99126.00;;;9.53;75.88
77165;BME280;66140;50.280;18.660;2023-03-20T08:05:21;99120.72;;;9.53;76.59
77165;BME280;66140;50.280;18.660;2023-03-20T08:07:47;99120.72;;;9.53;77.27
77165;BME280;66140;50.280;18.660;2023-03-20T08:10:13;99116.06;;;9.57;76.68
77165;BME280;66140;50.280;18.660;2023-03-20T08:12:39;99114.00;;;9.62;77.04
77165;BME280;66140;50.280;18.660;2023-03-20T08:15:04;99114.47;;;9.69;76.86
77165;BME280;66140;50.280;18.660;2023-03-20T08:17:30;99117.63;;;9.75;76.51
77165;BME280;66140;50.280;18.660;2023-03-20T08:19:56;99110.16;;;9.82;77.04
77165;BME280;66140;50.280;18.660;2023-03-20T08:22:22;99112.13;;;9.92;76.87
77165;BME280;66140;50.280;18.660;2023-03-20T08:24:51;99117.84;;;10.00;77.14
77165;BME280;66140;50.280;18.660;2023-03-20T08:27:16;99099.56;;;10.10;76.86
77165;BME280;66140;50.280;18.660;2023-03-20T08:29:42;99109.06;;;10.28;76.92
77165;BME280;66140;50.280;18.660;2023-03-20T08:32:07;99115.31;;;10.41;76.43
77165;BME280;66140;50.280;18.660;2023-03-20T08:34:34;99119.38;;;10.47;75.61
77165;BME280;66140;50.280;18.660;2023-03-20T08:37:01;99122.41;;;10.55;76.66
77165;BME280;66140;50.280;18.660;2023-03-20T08:39:27;99122.88;;;10.62;77.75
77165;BME280;66140;50.280;18.660;2023-03-20T08:41:52;99128.41;;;10.71;77.33
77165;BME280;66140;50.280;18.660;2023-03-20T08:44:18;99122.47;;;10.68;76.97
77165;BME280;66140;50.280;18.660;2023-03-20T08:46:46;99125.22;;;10.66;76.64
77165;BME280;66140;50.280;18.660;2023-03-20T08:49:11;99123.34;;;10.54;77.41
77165;BME280;66140;50.280;18.660;2023-03-20T08:51:37;99122.13;;;10.45;77.85
77165;BME280;66140;50.280;18.660;2023-03-20T08:54:02;99128.56;;;10.41;78.53
77165;BME280;66140;50.280;18.660;2023-03-20T08:56:28;99136.44;;;10.43;78.41
77165;BME280;66140;50.280;18.660;2023-03-20T08:58:53;99126.78;;;10.42;78.12
77165;BME280;66140;50.280;18.660;2023-03-20T09:01:19;99134.25;;;10.35;78.12
77165;BME280;66140;50.280;18.660;2023-03-20T09:03:45;99131.69;;;10.34;78.51
77165;BME280;66140;50.280;18.660;2023-03-20T09:06:11;99134.34;;;10.34;78.37
77165;BME280;66140;50.280;18.660;2023-03-20T09:08:36;99129.50;;;10.40;78.53
77165;BME280;66140;50.280;18.660;2023-03-20T09:11:02;99132.06;;;10.42;78.08
77165;BME280;66140;50.280;18.660;2023-03-20T09:13:28;99131.69;;;10.48;78.21
77165;BME280;66140;50.280;18.660;2023-03-20T09:15:54;99122.19;;;10.58;77.71
77165;BME280;66140;50.280;18.660;2023-03-20T09:18:20;99125.59;;;10.60;77.22
77165;BME280;66140;50.280;18.660;2023-03-20T09:20:46;99134.59;;;10.72;76.80
77165;BME280;66140;50.280;18.660;2023-03-20T09:23:12;99118.56;;;10.73;76.27
77165;BME280;66140;50.280;18.660;2023-03-20T09:25:37;99119.13;;;10.78;75.39
77165;BME280;66140;50.280;18.660;2023-03-20T09:28:03;99121.94;;;10.90;75.95
77165;BME280;66140;50.280;18.660;2023-03-20T09:30:28;99132.97;;;11.10;74.27
77165;BME280;66140;50.280;18.660;2023-03-20T09:32:54;99123.69;;;11.30;73.11
77165;BME280;66140;50.280;18.660;2023-03-20T09:35:20;99120.00;;;11.45;73.14
77165;BME280;66140;50.280;18.660;2023-03-20T09:37:45;99133.84;;;11.50;72.68
77165;BME280;66140;50.280;18.660;2023-03-20T09:40:27;99125.00;;;11.50;72.59
77165;BME280;66140;50.280;18.660;2023-03-20T09:43:13;99123.41;;;11.47;72.30
77165;BME280;66140;50.280;18.660;2023-03-20T09:51:17;99121.28;;;11.52;72.38
77165;BME280;66140;50.280;18.660;2023-03-20T09:53:52;99117.47;;;11.56;72.05
77165;BME280;66140;50.280;18.660;2023-03-20T09:56:24;99126.97;;;11.73;71.83
77165;BME280;66140;50.280;18.660;2023-03-20T09:58:55;99119.94;;;11.72;71.49
77165;BME280;66140;50.280;18.660;2023-03-20T10:01:23;99118.94;;;12.00;70.58
77165;BME280;66140;50.280;18.660;2023-03-20T10:03:55;99114.13;;;12.18;70.10
77165;BME280;66140;50.280;18.660;2023-03-20T10:06:22;99117.28;;;12.35;69.12
77165;BME280;66140;50.280;18.660;2023-03-20T10:08:48;99118.06;;;12.25;69.65
77165;BME280;66140;50.280;18.660;2023-03-20T10:14:23;99095.63;;;12.29;70.13
77165;BME280;66140;50.280;18.660;2023-03-20T10:19:42;99105.63;;;12.25;69.66
77165;BME280;66140;50.280;18.660;2023-03-20T10:28:11;99107.09;;;12.29;69.63
77165;BME280;66140;50.280;18.660;2023-03-20T10:33:29;99113.69;;;12.36;69.59
77165;BME280;66140;50.280;18.660;2023-03-20T10:40:57;99102.41;;;13.06;67.12
77165;BME280;66140;50.280;18.660;2023-03-20T10:43:34;99097.00;;;13.31;67.10
77165;BME280;66140;50.280;18.660;2023-03-20T10:46:04;99096.13;;;13.65;64.82
77165;BME280;66140;50.280;18.660;2023-03-20T10:48:57;99102.84;;;13.82;64.38
77165;BME280;66140;50.280;18.660;2023-03-20T10:51:40;99107.00;;;13.97;64.21
77165;BME280;66140;50.280;18.660;2023-03-20T10:54:22;99102.41;;;13.99;63.90
77165;BME280;66140;50.280;18.660;2023-03-20T10:56:49;99099.94;;;13.96;64.16
77165;BME280;66140;50.280;18.660;2023-03-20T10:59:46;99090.28;;;14.07;63.67
77165;BME280;66140;50.280;18.660;2023-03-20T11:02:15;99083.50;;;14.25;62.82
77165;BME280;66140;50.280;18.660;2023-03-20T11:04:42;99078.88;;;14.04;63.90
77165;BME280;66140;50.280;18.660;2023-03-20T11:09:33;99081.78;;;14.13;62.27
77165;BME280;66140;50.280;18.660;2023-03-20T11:12:00;99083.13;;;14.40;62.92
77165;BME280;66140;50.280;18.660;2023-03-20T11:14:30;99081.78;;;14.35;62.36
77165;BME280;66140;50.280;18.660;2023-03-20T11:17:00;99081.56;;;14.27;61.80
77165;BME280;66140;50.280;18.660;2023-03-20T11:19:26;99077.91;;;14.17;62.44
77165;BME280;66140;50.280;18.660;2023-03-20T11:21:54;99068.09;;;14.06;62.66
77165;BME280;66140;50.280;18.660;2023-03-20T11:24:40;99068.31;;;14.03;62.17
77165;BME280;66140;50.280;18.660;2023-03-20T11:27:09;99074.38;;;14.05;62.10
77165;BME280;66140;50.280;18.660;2023-03-20T11:29:35;99074.75;;;14.00;63.14
77165;BME280;66140;50.280;18.660;2023-03-20T11:34:37;99068.69;;;14.32;62.22
77165;BME280;66140;50.280;18.660;2023-03-20T11:37:16;99049.78;;;14.46;62.46
77165;BME280;66140;50.280;18.660;2023-03-20T11:42:37;99059.41;;;14.80;60.39
77165;BME280;66140;50.280;18.660;2023-03-20T11:45:15;99056.28;;;14.75;61.22
77165;BME280;66140;50.280;18.660;2023-03-20T11:47:41;99061.91;;;14.50;61.83
77165;BME280;66140;50.280;18.660;2023-03-20T11:50:32;99056.22;;;14.43;61.61
77165;BME280;66140;50.280;18.660;2023-03-20T11:53:18;99041.75;;;14.35;61.83
77165;BME280;66140;50.280;18.660;2023-03-20T11:56:01;99046.97;;;14.25;61.50
77165;BME280;66140;50.280;18.660;2023-03-20T11:58:27;99039.94;;;14.02;63.35
77165;BME280;66140;50.280;18.660;2023-03-20T12:00:55;99045.66;;;14.20;62.71
77165;BME280;66140;50.280;18.660;2023-03-20T12:03:38;99045.28;;;14.24;62.26
77165;BME280;66140;50.280;18.660;2023-03-20T12:06:16;99033.41;;;14.06;62.84
77165;BME280;66140;50.280;18.660;2023-03-20T12:08:48;99037.63;;;14.09;62.95
77165;BME280;66140;50.280;18.660;2023-03-20T12:11:37;99036.44;;;14.13;63.49
77165;BME280;66140;50.280;18.660;2023-03-20T12:14:09;99036.66;;;13.98;63.06
77165;BME280;66140;50.280;18.660;2023-03-20T12:16:36;99039.81;;;14.03;63.34
77165;BME280;66140;50.280;18.660;2023-03-20T12:19:11;99036.19;;;13.93;63.43
77165;BME280;66140;50.280;18.660;2023-03-20T12:21:51;99039.66;;;13.83;64.09
77165;BME280;66140;50.280;18.660;2023-03-20T12:24:40;99034.22;;;13.73;64.40
77165;BME280;66140;50.280;18.660;2023-03-20T12:27:19;99033.47;;;13.60;64.48
77165;BME280;66140;50.280;18.660;2023-03-20T12:29:49;99033.25;;;13.63;65.49
77165;BME280;66140;50.280;18.660;2023-03-20T12:34:55;99020.25;;;13.58;64.86
77165;BME280;66140;50.280;18.660;2023-03-20T12:37:22;99031.09;;;13.33;65.03
77165;BME280;66140;50.280;18.660;2023-03-20T12:42:26;99039.09;;;13.09;67.22
77165;BME280;66140;50.280;18.660;2023-03-20T12:50:40;99034.44;;;13.00;68.29
77165;BME280;66140;50.280;18.660;2023-03-20T13:01:31;99037.81;;;12.31;73.94
77165;BME280;66140;50.280;18.660;2023-03-20T13:06:53;99030.94;;;12.28;74.96
77165;BME280;66140;50.280;18.660;2023-03-20T13:17:18;99029.22;;;12.27;76.93
77165;BME280;66140;50.280;18.660;2023-03-20T13:25:49;99034.41;;;12.41;74.27
77165;BME280;66140;50.280;18.660;2023-03-20T13:34:54;99038.25;;;12.61;73.31
77165;BME280;66140;50.280;18.660;2023-03-20T13:37:31;99028.00;;;12.68;73.18
77165;BME280;66140;50.280;18.660;2023-03-20T13:40:29;99026.53;;;12.64;73.50
77165;BME280;66140;50.280;18.660;2023-03-20T13:43:15;99022.47;;;12.71;73.11
77165;BME280;66140;50.280;18.660;2023-03-20T13:45:46;99013.28;;;12.75;72.04
77165;BME280;66140;50.280;18.660;2023-03-20T13:53:52;99021.47;;;12.61;74.52
77165;BME280;66140;50.280;18.660;2023-03-20T13:56:27;99013.38;;;12.50;73.40
77165;BME280;66140;50.280;18.660;2023-03-20T13:59:13;99026.81;;;12.48;72.95
77165;BME280;66140;50.280;18.660;2023-03-20T14:01:58;99024.28;;;12.47;74.33
77165;BME280;66140;50.280;18.660;2023-03-20T14:04:29;99018.97;;;12.34;75.09
77165;BME280;66140;50.280;18.660;2023-03-20T14:06:58;99008.16;;;12.24;76.41
77165;BME280;66140;50.280;18.660;2023-03-20T14:09:35;99018.09;;;12.10;77.67
77165;BME280;66140;50.280;18.660;2023-03-20T14:12:11;99008.31;;;11.97;78.13
77165;BME280;66140;50.280;18.660;2023-03-20T14:14:56;99020.78;;;11.97;79.41
77165;BME280;66140;50.280;18.660;2023-03-20T14:17:28;99024.69;;;11.91;79.36
77165;BME280;66140;50.280;18.660;2023-03-20T14:19:55;99024.81;;;11.90;78.87
77165;BME280;66140;50.280;18.660;2023-03-20T14:22:33;99019.50;;;11.90;78.51
77165;BME280;66140;50.280;18.660;2023-03-20T14:25:04;99019.59;;;11.88;79.60
77165;BME280;66140;50.280;18.660;2023-03-20T14:27:34;99016.84;;;11.90;78.20
77165;BME280;66140;50.280;18.660;2023-03-20T14:35:28;99017.38;;;11.95;78.55
77165;BME280;66140;50.280;18.660;2023-03-20T14:38:29;99017.56;;;11.92;78.60
77165;BME280;66140;50.280;18.660;2023-03-20T14:41:04;99016.50;;;11.94;76.81
77165;BME280;66140;50.280;18.660;2023-03-20T14:43:41;99009.69;;;12.03;76.21
77165;BME280;66140;50.280;18.660;2023-03-20T14:52:41;98997.91;;;12.31;76.04
77165;BME280;66140;50.280;18.660;2023-03-20T14:54:54;98997.81;;;12.32;74.92
77165;BME280;66140;50.280;18.660;2023-03-20T14:57:31;99001.72;;;12.39;74.71
77165;BME280;66140;50.280;18.660;2023-03-20T14:59:57;98998.09;;;12.40;74.77
77165;BME280;66140;50.280;18.660;2023-03-20T15:02:28;99006.59;;;12.45;74.80
77165;BME280;66140;50.280;18.660;2023-03-20T15:04:55;98993.84;;;12.38;75.07
77165;BME280;66140;50.280;18.660;2023-03-20T15:07:24;98996.84;;;12.33;75.15
77165;BME280;66140;50.280;18.660;2023-03-20T15:09:53;98994.75;;;12.26;75.50
77165;BME280;66140;50.280;18.660;2023-03-20T15:12:23;98993.28;;;12.22;75.70
77165;BME280;66140;50.280;18.660;2023-03-20T15:15:00;98979.63;;;12.26;74.97
77165;BME280;66140;50.280;18.660;2023-03-20T15:17:34;98989.31;;;12.27;75.89
77165;BME280;66140;50.280;18.660;2023-03-20T15:20:22;98983.03;;;12.28;76.11
77165;BME280;66140;50.280;18.660;2023-03-20T15:22:47;98982.41;;;12.25;76.12
77165;BME280;66140;50.280;18.660;2023-03-20T15:25:17;98987.94;;;12.22;76.50
77165;BME280;66140;50.280;18.660;2023-03-20T15:27:44;98986.25;;;12.21;75.75
77165;BME280;66140;50.280;18.660;2023-03-20T15:30:13;98978.38;;;12.19;76.09
77165;BME280;66140;50.280;18.660;2023-03-20T15:32:40;98984.66;;;12.18;75.92
77165;BME280;66140;50.280;18.660;2023-03-20T15:35:19;98989.34;;;12.15;77.02
77165;BME280;66140;50.280;18.660;2023-03-20T15:37:48;98980.84;;;12.10;76.25
77165;BME280;66140;50.280;18.660;2023-03-20T15:40:27;98986.28;;;12.08;76.67
77165;BME280;66140;50.280;18.660;2023-03-20T15:43:20;98986.50;;;12.05;77.08
77165;BME280;66140;50.280;18.660;2023-03-20T15:45:45;98985.03;;;12.01;77.65
77165;BME280;66140;50.280;18.660;2023-03-20T15:48:17;98985.13;;;11.99;77.43
77165;BME280;66140;50.280;18.660;2023-03-20T15:50:51;98976.28;;;11.99;76.85
77165;BME280;66140;50.280;18.660;2023-03-20T15:53:18;98982.25;;;12.02;77.25
77165;BME280;66140;50.280;18.660;2023-03-20T15:55:51;98983.22;;;12.01;77.66
77165;BME280;66140;50.280;18.660;2023-03-20T15:58:18;98978.09;;;11.98;77.29
77165;BME280;66140;50.280;18.660;2023-03-20T16:00:45;98989.91;;;12.07;75.83
77165;BME280;66140;50.280;18.660;2023-03-20T16:03:16;98986.50;;;12.05;76.65
77165;BME280;66140;50.280;18.660;2023-03-20T16:05:45;98991.50;;;12.10;75.92
77165;BME280;66140;50.280;18.660;2023-03-20T16:08:12;98996.91;;;12.08;75.99
77165;BME280;66140;50.280;18.660;2023-03-20T16:10:41;98992.91;;;12.02;76.49
77165;BME280;66140;50.280;18.660;2023-03-20T16:13:12;98997.91;;;11.94;76.94
77165;BME280;66140;50.280;18.660;2023-03-20T16:15:38;98993.13;;;11.87;78.05
77165;BME280;66140;50.280;18.660;2023-03-20T16:18:04;99007.69;;;11.81;76.95
77165;BME280;66140;50.280;18.660;2023-03-20T16:20:36;98999.69;;;11.69;77.38
77165;BME280;66140;50.280;18.660;2023-03-20T16:23:05;99005.13;;;11.54;78.03
77165;BME280;66140;50.280;18.660;2023-03-20T16:25:33;99009.47;;;11.43;78.13
77165;BME280;66140;50.280;18.660;2023-03-20T16:27:59;99006.91;;;11.29;79.19
77165;BME280;66140;50.280;18.660;2023-03-20T16:30:29;98999.16;;;11.13;79.85
77165;BME280;66140;50.280;18.660;2023-03-20T16:33:03;99001.88;;;10.99;79.65
77165;BME280;66140;50.280;18.660;2023-03-20T16:35:36;98996.63;;;10.84;80.34
77165;BME280;66140;50.280;18.660;2023-03-20T16:38:15;98999.34;;;10.70;80.97
77165;BME280;66140;50.280;18.660;2023-03-20T16:40:41;99003.97;;;10.54;81.80
77165;BME280;66140;50.280;18.660;2023-03-20T16:43:18;99002.00;;;10.43;83.17
77165;BME280;66140;50.280;18.660;2023-03-20T16:45:48;98998.63;;;10.27;83.21
77165;BME280;66140;50.280;18.660;2023-03-20T16:50:42;99005.38;;;10.04;84.62
77165;BME280;66140;50.280;18.660;2023-03-20T16:53:13;98997.34;;;9.92;84.69
77165;BME280;66140;50.280;18.660;2023-03-20T16:55:47;99003.31;;;9.81;85.19
77165;BME280;66140;50.280;18.660;2023-03-20T16:58:24;98999.53;;;9.71;85.61
77165;BME280;66140;50.280;18.660;2023-03-20T17:01:02;99007.94;;;9.63;86.20
77165;BME280;66140;50.280;18.660;2023-03-20T17:03:47;99007.56;;;9.55;86.03
77165;BME280;66140;50.280;18.660;2023-03-20T17:08:50;99024.69;;;9.50;87.51
77165;BME280;66140;50.280;18.660;2023-03-20T17:11:36;99019.75;;;9.44;87.22
77165;BME280;66140;50.280;18.660;2023-03-20T17:14:03;99022.50;;;9.42;88.55
77165;BME280;66140;50.280;18.660;2023-03-20T17:16:30;99022.78;;;9.38;88.09
77165;BME280;66140;50.280;18.660;2023-03-20T17:19:01;99036.78;;;9.40;88.29
77165;BME280;66140;50.280;18.660;2023-03-20T17:21:27;99034.31;;;9.37;88.02
77165;BME280;66140;50.280;18.660;2023-03-20T17:23:55;99035.16;;;9.37;88.38
77165;BME280;66140;50.280;18.660;2023-03-20T17:26:23;99053.25;;;9.45;88.65
77165;BME280;66140;50.280;18.660;2023-03-20T17:28:51;99051.00;;;9.53;87.89
77165;BME280;66140;50.280;18.660;2023-03-20T17:31:17;99041.84;;;9.73;86.48
77165;BME280;66140;50.280;18.660;2023-03-20T17:33:44;99046.47;;;9.83;85.54
77165;BME280;66140;50.280;18.660;2023-03-20T17:38:41;99050.06;;;10.11;80.76
77165;BME280;66140;50.280;18.660;2023-03-20T17:41:12;99048.16;;;10.13;80.20
77165;BME280;66140;50.280;18.660;2023-03-20T17:43:38;99049.94;;;10.12;80.53
77165;BME280;66140;50.280;18.660;2023-03-20T17:46:04;99043.63;;;10.00;80.85
77165;BME280;66140;50.280;18.660;2023-03-20T17:48:29;99047.41;;;9.96;80.79
77165;BME280;66140;50.280;18.660;2023-03-20T17:50:55;99039.00;;;9.90;80.71
77165;BME280;66140;50.280;18.660;2023-03-20T17:53:23;99040.88;;;9.88;80.89
77165;BME280;66140;50.280;18.660;2023-03-20T17:55:49;99055.91;;;9.87;81.67
77165;BME280;66140;50.280;18.660;2023-03-20T17:58:18;99052.78;;;9.81;81.68
77165;BME280;66140;50.280;18.660;2023-03-20T18:00:45;99072.97;;;9.83;82.53
77165;BME280;66140;50.280;18.660;2023-03-20T18:03:11;99070.69;;;9.77;82.51
77165;BME280;66140;50.280;18.660;2023-03-20T18:05:37;99066.03;;;9.81;82.29
77165;BME280;66140;50.280;18.660;2023-03-20T18:08:05;99068.59;;;9.82;81.79
77165;BME280;66140;50.280;18.660;2023-03-20T18:10:31;99083.56;;;9.83;82.93
77165;BME280;66140;50.280;18.660;2023-03-20T18:12:58;99079.41;;;9.79;82.78
77165;BME280;66140;50.280;18.660;2023-03-20T18:15:23;99071.63;;;9.76;82.83
77165;BME280;66140;50.280;18.660;2023-03-20T18:17:49;99057.72;;;9.73;82.50
77165;BME280;66140;50.280;18.660;2023-03-20T18:20:29;99078.72;;;9.76;82.31
77165;BME280;66140;50.280;18.660;2023-03-20T18:22:55;99062.56;;;9.66;82.34
77165;BME280;66140;50.280;18.660;2023-03-20T18:25:21;99068.69;;;9.66;82.27
77165;BME280;66140;50.280;18.660;2023-03-20T18:27:50;99065.47;;;9.61;82.96
77165;BME280;66140;50.280;18.660;2023-03-20T18:30:19;99054.97;;;9.60;82.27
77165;BME280;66140;50.280;18.660;2023-03-20T18:32:45;99046.34;;;9.56;81.93
77165;BME280;66140;50.280;18.660;2023-03-20T18:35:12;99063.09;;;9.57;82.46
77165;BME280;66140;50.280;18.660;2023-03-20T18:37:41;99063.75;;;9.60;82.37
77165;BME280;66140;50.280;18.660;2023-03-20T18:40:24;99062.25;;;9.56;82.89
77165;BME280;66140;50.280;18.660;2023-03-20T18:42:51;99065.81;;;9.55;81.86
77165;BME280;66140;50.280;18.660;2023-03-20T18:45:17;99056.47;;;9.50;82.73
77165;BME280;66140;50.280;18.660;2023-03-20T18:47:43;99055.81;;;9.46;82.64
77165;BME280;66140;50.280;18.660;2023-03-20T18:50:29;99049.75;;;9.44;83.03
77165;BME280;66140;50.280;18.660;2023-03-20T18:52:58;99056.06;;;9.42;83.27
77165;BME280;66140;50.280;18.660;2023-03-20T18:55:26;99064.84;;;9.42;82.74
77165;BME280;66140;50.280;18.660;2023-03-20T18:57:51;99054.38;;;9.41;83.24
77165;BME280;66140;50.280;18.660;2023-03-20T19:00:21;99053.78;;;9.36;83.38
77165;BME280;66140;50.280;18.660;2023-03-20T19:02:48;99058.59;;;9.29;83.70
77165;BME280;66140;50.280;18.660;2023-03-20T19:05:15;99054.25;;;9.28;83.34
77165;BME280;66140;50.280;18.660;2023-03-20T19:07:41;99065.59;;;9.30;83.83
77165;BME280;66140;50.280;18.660;2023-03-20T19:10:34;99056.22;;;9.24;83.79
77165;BME280;66140;50.280;18.660;2023-03-20T19:13:02;99055.28;;;9.25;85.10
77165;BME280;66140;50.280;18.660;2023-03-20T19:15:29;99052.63;;;9.25;84.50
77165;BME280;66140;50.280;18.660;2023-03-20T19:18:03;99051.88;;;9.23;84.62
77165;BME280;66140;50.280;18.660;2023-03-20T19:20:41;99061.50;;;9.24;83.82
77165;BME280;66140;50.280;18.660;2023-03-20T19:23:11;99059.81;;;9.23;84.39
77165;BME280;66140;50.280;18.660;2023-03-20T19:25:38;99069.47;;;9.24;84.39
77165;BME280;66140;50.280;18.660;2023-03-20T19:28:05;99059.22;;;9.18;84.75
77165;BME280;66140;50.280;18.660;2023-03-20T19:30:34;99068.09;;;9.17;85.17
77165;BME280;66140;50.280;18.660;2023-03-20T19:33:00;99061.03;;;9.18;85.08
77165;BME280;66140;50.280;18.660;2023-03-20T19:35:26;99068.19;;;9.16;85.41
77165;BME280;66140;50.280;18.660;2023-03-20T19:37:52;99057.53;;;9.17;85.25
77165;BME280;66140;50.280;18.660;2023-03-20T19:40:50;99065.66;;;9.14;86.06
77165;BME280;66140;50.280;18.660;2023-03-20T19:43:20;99063.25;;;9.10;85.83
77165;BME280;66140;50.280;18.660;2023-03-20T19:45:47;99065.81;;;9.11;86.25
77165;BME280;66140;50.280;18.660;2023-03-20T19:48:23;99067.53;;;9.12;86.65
77165;BME280;66140;50.280;18.660;2023-03-20T19:50:51;99065.47;;;9.17;87.31